Beckwith, West Virginia
Current Conditions -  °F | °C
As of 8:51 AM on Wednesday 28 Jan 2015 (Local Time) from KBKW Reporting Station
Light Snow Light Snow  
Wind Chill:   Ceiling: 800
Heat Index: 17°   Visibility: 2mi
Dew Point: 13°   Wind: 6mph
Humidity: 84%   Direction: 320°NW
Pressure: 30.23"   Gusts: NA
Location:  38.0317°N, 81.0282°W
Report Text: KBKW 281351Z AUTO 32005KT 2SM -SN BR OVC008 M08/M11 A3023 RMK AO2 SLP286 P0000 T10831106
Loading
Personal Weather Stations






























Interactive Weather Map New forecast layout! Learn more

10-Day Weather Forecast

Advertisements
Track Severe Weather on mobile